createdAt,value
2022-12-24T00:00:40.100Z,59.89
2022-12-24T00:04:42.865Z,60.05
2022-12-24T00:08:43.708Z,60.55
2022-12-24T00:12:43.832Z,60.48
2022-12-24T00:16:43.941Z,60.23
2022-12-24T00:20:50.807Z,59.73
2022-12-24T00:24:50.888Z,59.15
2022-12-24T00:28:50.949Z,59.47
2022-12-24T00:32:52.098Z,59.44
2022-12-24T00:36:55.187Z,59.45
2022-12-24T00:40:55.300Z,59.44
2022-12-24T00:44:55.369Z,59.97
2022-12-24T00:48:55.913Z,59.81
2022-12-24T00:52:59.020Z,58.45
2022-12-24T00:56:59.119Z,59.04
2022-12-24T01:00:59.259Z,59.70
2022-12-24T01:05:14.451Z,58.87
2022-12-24T01:09:17.298Z,59.09
2022-12-24T01:13:17.383Z,58.82
2022-12-24T01:17:17.665Z,58.76
2022-12-24T01:21:18.736Z,58.70
2022-12-24T01:25:21.643Z,58.86
2022-12-24T01:29:22.054Z,58.57
2022-12-24T01:33:22.268Z,58.67
2022-12-24T01:37:22.391Z,58.89
2022-12-24T01:41:39.523Z,58.17
2022-12-24T01:45:50.861Z,57.32
2022-12-24T01:49:56.832Z,58.23
2022-12-24T01:54:03.432Z,58.33
2022-12-24T01:58:09.618Z,57.52
2022-12-24T02:02:09.880Z,58.37
2022-12-24T02:06:12.559Z,58.30
2022-12-24T02:10:17.000Z,57.93
2022-12-24T02:14:20.198Z,57.08
2022-12-24T02:18:28.589Z,57.11
2022-12-24T02:22:49.717Z,56.28
2022-12-24T02:27:20.200Z,56.34
2022-12-24T02:31:30.525Z,55.79
2022-12-24T02:35:40.466Z,57.04
2022-12-24T02:39:50.286Z,56.46
2022-12-24T02:43:52.315Z,56.24
2022-12-24T02:47:58.380Z,56.20
2022-12-24T02:51:58.420Z,56.54
2022-12-24T02:56:37.867Z,56.41
2022-12-24T03:00:57.053Z,55.60
2022-12-24T03:05:24.619Z,55.83
2022-12-24T03:09:30.903Z,56.33
2022-12-24T03:13:32.450Z,56.23
2022-12-24T03:17:34.399Z,55.97
2022-12-24T03:21:42.726Z,55.79
2022-12-24T03:25:47.628Z,55.54
2022-12-24T03:29:49.385Z,56.67
2022-12-24T03:33:49.653Z,56.51
2022-12-24T03:37:52.342Z,56.26
2022-12-24T03:41:55.889Z,55.88
2022-12-24T03:45:56.073Z,56.32
2022-12-24T03:49:56.230Z,55.71
2022-12-24T03:54:00.607Z,55.84
2022-12-24T03:58:00.696Z,55.44
2022-12-24T04:02:01.006Z,55.10
2022-12-24T04:06:07.431Z,55.91
2022-12-24T04:10:11.945Z,55.47
2022-12-24T04:14:12.071Z,54.85
2022-12-24T04:18:12.097Z,54.80
2022-12-24T04:22:12.273Z,55.16
2022-12-24T04:26:16.222Z,54.03
2022-12-24T04:30:16.855Z,55.00
2022-12-24T04:34:16.952Z,55.15
2022-12-24T04:38:17.092Z,54.72
2022-12-24T04:42:19.806Z,55.62
2022-12-24T04:46:24.097Z,55.53
2022-12-24T04:50:24.288Z,55.73
2022-12-24T04:54:24.342Z,56.60
2022-12-24T04:58:27.936Z,56.05
2022-12-24T05:02:28.380Z,55.63
2022-12-24T05:06:33.761Z,55.58
2022-12-24T05:10:33.800Z,55.68
2022-12-24T05:14:36.567Z,55.60
2022-12-24T05:18:36.634Z,54.75
2022-12-24T05:22:49.333Z,54.34
2022-12-24T05:26:54.338Z,53.73
2022-12-24T05:30:56.982Z,54.35
2022-12-24T05:34:57.093Z,55.12
2022-12-24T05:38:57.483Z,55.71
2022-12-24T05:42:57.556Z,55.36
2022-12-24T05:47:00.318Z,55.48
2022-12-24T05:51:00.718Z,56.00
2022-12-24T05:55:00.799Z,55.84
2022-12-24T05:59:01.045Z,55.98
2022-12-24T06:03:03.844Z,56.13
2022-12-24T06:07:03.999Z,57.59
2022-12-24T06:11:08.130Z,58.78
2022-12-24T06:15:10.755Z,57.93
2022-12-24T06:19:13.462Z,59.47
2022-12-24T06:23:13.637Z,59.98
2022-12-24T06:27:13.653Z,60.45
2022-12-24T06:31:17.799Z,59.96
2022-12-24T06:35:20.765Z,60.11
2022-12-24T06:39:21.021Z,60.25
2022-12-24T06:43:21.127Z,59.19
2022-12-24T06:47:21.185Z,59.18
2022-12-24T06:51:24.183Z,60.08
2022-12-24T06:55:24.355Z,59.76
2022-12-24T06:59:24.665Z,59.19
2022-12-24T07:03:25.090Z,59.07
2022-12-24T07:07:27.947Z,58.90
2022-12-24T07:11:29.431Z,58.90
2022-12-24T07:15:29.510Z,58.83
2022-12-24T07:19:29.596Z,58.80
2022-12-24T07:23:32.258Z,58.76
2022-12-24T07:27:33.513Z,58.72
2022-12-24T07:31:33.621Z,59.04
2022-12-24T07:35:33.845Z,59.59
2022-12-24T07:39:36.475Z,60.69
2022-12-24T07:43:36.656Z,61.06
2022-12-24T07:47:37.786Z,59.87
2022-12-24T07:51:38.082Z,58.98
2022-12-24T07:55:41.332Z,59.33
2022-12-24T07:59:41.585Z,60.07
2022-12-24T08:03:42.279Z,59.53
2022-12-24T08:07:42.540Z,60.10
2022-12-24T08:11:51.724Z,59.88
2022-12-24T08:15:52.506Z,59.66
2022-12-24T08:19:52.647Z,59.74
2022-12-24T08:23:52.760Z,60.39
2022-12-24T08:27:55.557Z,60.48
2022-12-24T08:31:55.598Z,60.81
2022-12-24T08:35:57.942Z,60.76
2022-12-24T08:39:58.044Z,60.09
2022-12-24T08:44:01.330Z,59.68
2022-12-24T08:48:02.856Z,58.87
2022-12-24T08:52:03.142Z,58.98
2022-12-24T08:56:05.707Z,57.23
2022-12-24T09:00:11.265Z,57.16
2022-12-24T09:04:11.500Z,57.47
2022-12-24T09:08:11.663Z,57.03
2022-12-24T09:12:12.638Z,58.17
2022-12-24T09:16:16.341Z,56.40
2022-12-24T09:20:16.929Z,56.22
2022-12-24T09:24:17.349Z,55.77
2022-12-24T09:28:17.420Z,55.68
2022-12-24T09:32:20.437Z,55.67
2022-12-24T09:36:21.361Z,53.81
2022-12-24T09:40:32.830Z,52.23
2022-12-24T09:44:46.654Z,53.43
2022-12-24T09:48:55.235Z,54.88
2022-12-24T09:52:57.730Z,55.33
2022-12-24T09:57:03.483Z,54.86
2022-12-24T10:01:03.706Z,55.24
2022-12-24T10:05:12.219Z,55.66
2022-12-24T10:09:31.626Z,55.16
2022-12-24T10:13:55.377Z,55.28
2022-12-24T10:18:16.892Z,54.56
2022-12-24T10:22:30.363Z,54.83
2022-12-24T10:26:41.612Z,54.82
2022-12-24T10:30:42.257Z,52.90
2022-12-24T10:34:48.040Z,52.48
2022-12-24T10:38:50.770Z,52.19
2022-12-24T10:42:51.881Z,52.23
2022-12-24T10:46:52.107Z,53.27
2022-12-24T10:51:01.955Z,52.98
2022-12-24T10:55:23.607Z,53.67
2022-12-24T10:59:30.766Z,53.64
2022-12-24T11:03:36.108Z,53.77
2022-12-24T11:07:37.338Z,53.00
2022-12-24T11:11:40.456Z,52.35
2022-12-24T11:15:41.083Z,53.77
2022-12-24T11:19:42.433Z,53.23
2022-12-24T11:23:42.597Z,51.76
2022-12-24T11:27:50.716Z,51.75
2022-12-24T11:31:52.845Z,52.45
2022-12-24T11:36:09.558Z,53.30
2022-12-24T11:40:23.992Z,54.79
2022-12-24T11:44:31.154Z,54.55
2022-12-24T11:48:34.799Z,54.72
2022-12-24T11:52:35.337Z,55.49
2022-12-24T11:56:43.610Z,54.13
2022-12-24T12:00:49.768Z,54.33
2022-12-24T12:04:56.906Z,54.68
2022-12-24T12:09:02.834Z,55.29
2022-12-24T12:13:14.736Z,55.88
2022-12-24T12:17:35.581Z,54.82
2022-12-24T12:21:45.389Z,53.29
2022-12-24T12:25:55.405Z,52.75
2022-12-24T12:30:04.140Z,52.31
2022-12-24T12:34:14.969Z,52.83
2022-12-24T12:38:23.013Z,51.55
2022-12-24T12:42:32.395Z,50.15
2022-12-24T12:46:49.753Z,50.01
2022-12-24T12:51:03.459Z,50.84
2022-12-24T12:55:26.203Z,51.64
2022-12-24T12:59:37.091Z,50.79
2022-12-24T13:04:20.185Z,51.71
2022-12-24T13:09:00.032Z,52.35
2022-12-24T13:13:36.235Z,51.35
2022-12-24T13:18:09.315Z,49.59
2022-12-24T13:22:19.360Z,47.15
2022-12-24T13:26:22.159Z,47.22
2022-12-24T13:30:41.664Z,48.97
2022-12-24T13:34:42.468Z,49.55
2022-12-24T13:38:47.375Z,51.30
2022-12-24T13:43:12.655Z,51.72
2022-12-24T13:47:32.439Z,51.74
2022-12-24T13:51:36.189Z,51.18
2022-12-24T13:55:37.721Z,51.56
2022-12-24T13:59:42.832Z,51.48
2022-12-24T14:03:49.189Z,51.63
2022-12-24T14:07:52.005Z,51.94
2022-12-24T14:12:21.737Z,52.10
2022-12-24T14:16:33.337Z,51.71
2022-12-24T14:20:36.158Z,52.29
2022-12-24T14:24:40.180Z,52.36
2022-12-24T14:28:46.383Z,52.07
2022-12-24T14:32:51.328Z,52.75
2022-12-24T14:36:55.000Z,52.99
2022-12-24T14:41:09.217Z,53.40
2022-12-24T14:45:26.033Z,53.76
2022-12-24T14:49:49.965Z,53.66
2022-12-24T14:54:21.517Z,53.90
2022-12-24T14:58:29.159Z,54.15
2022-12-24T15:02:50.295Z,54.50
2022-12-24T15:06:57.731Z,54.61
2022-12-24T15:11:04.046Z,54.72
2022-12-24T15:15:04.238Z,54.75
2022-12-24T15:19:09.406Z,54.60
2022-12-24T15:23:23.369Z,55.00
2022-12-24T15:27:26.855Z,55.19
2022-12-24T15:31:29.802Z,55.73
2022-12-24T15:35:51.352Z,56.13
2022-12-24T15:40:04.565Z,57.01
2022-12-24T15:44:07.011Z,57.21
2022-12-24T15:48:15.321Z,56.74
2022-12-24T15:52:20.657Z,56.61
2022-12-24T15:56:38.398Z,56.76
2022-12-24T16:00:38.559Z,56.47
2022-12-24T16:04:38.811Z,56.56
2022-12-24T16:08:41.448Z,56.41
2022-12-24T16:12:44.168Z,56.86
2022-12-24T16:16:49.276Z,57.09
2022-12-24T16:20:53.899Z,57.32
2022-12-24T16:24:55.730Z,56.95
2022-12-24T16:28:58.939Z,56.89
2022-12-24T16:32:59.032Z,56.63
2022-12-24T16:37:01.332Z,57.23
2022-12-24T16:41:01.623Z,58.15
2022-12-24T16:45:04.301Z,58.26
2022-12-24T16:49:04.485Z,58.79
2022-12-24T16:53:04.892Z,58.75
2022-12-24T16:57:05.156Z,58.36
2022-12-24T17:01:12.820Z,58.02
2022-12-24T17:05:13.772Z,57.79
2022-12-24T17:09:15.419Z,57.48
2022-12-24T17:13:15.542Z,57.17
2022-12-24T17:17:27.432Z,57.45
2022-12-24T17:21:27.552Z,56.83
2022-12-24T17:25:27.614Z,56.16
2022-12-24T17:29:27.679Z,55.95
2022-12-24T17:33:30.506Z,56.25
2022-12-24T17:37:30.648Z,55.84
2022-12-24T17:41:30.730Z,55.95
2022-12-24T17:45:30.801Z,55.78
2022-12-24T17:49:33.856Z,56.31
2022-12-24T17:53:35.461Z,56.86
2022-12-24T17:57:35.603Z,56.88
2022-12-24T18:01:35.949Z,57.23
2022-12-24T18:05:41.497Z,56.79
2022-12-24T18:09:42.041Z,56.76
2022-12-24T18:13:42.801Z,57.47
2022-12-24T18:17:42.854Z,57.78
2022-12-24T18:21:45.567Z,57.62
2022-12-24T18:25:46.582Z,57.76
2022-12-24T18:29:46.854Z,57.59
2022-12-24T18:33:47.823Z,57.28
2022-12-24T18:37:50.506Z,56.84
2022-12-24T18:41:50.562Z,57.02
2022-12-24T18:45:50.624Z,56.73
2022-12-24T18:49:50.730Z,56.93
2022-12-24T18:53:53.876Z,56.91
2022-12-24T18:57:54.054Z,57.19
2022-12-24T19:01:54.557Z,56.77
2022-12-24T19:05:54.839Z,56.54
2022-12-24T19:09:57.581Z,56.30
2022-12-24T19:13:58.185Z,56.29
2022-12-24T19:17:58.642Z,56.23
2022-12-24T19:21:58.741Z,56.62
2022-12-24T19:26:01.561Z,56.17
2022-12-24T19:30:01.651Z,55.80
2022-12-24T19:34:02.238Z,55.93
2022-12-24T19:38:03.016Z,56.03
2022-12-24T19:42:06.071Z,56.03
2022-12-24T19:46:06.260Z,56.23
2022-12-24T19:50:07.591Z,56.13
2022-12-24T19:54:14.886Z,55.94
2022-12-24T19:58:21.341Z,56.09
2022-12-24T20:02:21.606Z,55.97
2022-12-24T20:06:25.518Z,55.91
2022-12-24T20:10:25.576Z,56.55
2022-12-24T20:14:28.740Z,56.43
2022-12-24T20:18:28.816Z,56.54
2022-12-24T20:22:29.186Z,56.67
2022-12-24T20:26:32.595Z,56.49
2022-12-24T20:30:40.458Z,56.16
2022-12-24T20:34:40.716Z,56.75
2022-12-24T20:38:41.037Z,56.89
2022-12-24T20:42:41.294Z,56.76
2022-12-24T20:46:43.937Z,57.22
2022-12-24T20:50:44.292Z,56.96
2022-12-24T20:54:44.437Z,56.52
2022-12-24T20:58:44.677Z,56.50
2022-12-24T21:02:47.515Z,57.44
2022-12-24T21:06:48.840Z,57.47
2022-12-24T21:11:09.913Z,57.59
2022-12-24T21:15:11.268Z,57.92
2022-12-24T21:19:20.982Z,58.16
2022-12-24T21:23:21.209Z,57.52
2022-12-24T21:27:22.063Z,57.91
2022-12-24T21:31:24.574Z,57.34
2022-12-24T21:35:27.399Z,56.97
2022-12-24T21:39:27.524Z,57.48
2022-12-24T21:43:27.668Z,57.54
2022-12-24T21:47:28.263Z,57.58
2022-12-24T21:51:28.932Z,57.83
2022-12-24T21:55:29.097Z,57.81
2022-12-24T21:59:30.321Z,58.60
2022-12-24T22:03:30.494Z,58.28
2022-12-24T22:07:45.777Z,58.54
2022-12-24T22:11:54.718Z,58.82
2022-12-24T22:15:57.033Z,58.93
2022-12-24T22:19:57.665Z,59.00
2022-12-24T22:24:07.507Z,59.44
2022-12-24T22:28:08.426Z,59.14
2022-12-24T22:32:09.204Z,58.40
2022-12-24T22:36:10.656Z,58.88
2022-12-24T22:40:15.528Z,58.96
2022-12-24T22:44:15.749Z,58.90
2022-12-24T22:48:16.016Z,59.12
2022-12-24T22:52:16.171Z,59.13
2022-12-24T22:56:23.293Z,59.39
2022-12-24T23:00:43.265Z,59.53
2022-12-24T23:04:44.287Z,59.81
2022-12-24T23:08:44.402Z,59.49
2022-12-24T23:12:59.737Z,59.49
2022-12-24T23:16:59.970Z,59.30
2022-12-24T23:21:00.059Z,59.81
2022-12-24T23:25:00.188Z,59.71
2022-12-24T23:29:02.867Z,59.45
2022-12-24T23:33:02.942Z,59.02
2022-12-24T23:37:03.046Z,58.89
2022-12-24T23:41:06.032Z,58.92
2022-12-24T23:45:10.416Z,58.95
2022-12-24T23:49:10.592Z,59.20
2022-12-24T23:53:11.003Z,59.07
2022-12-24T23:57:11.163Z,58.75
